Naftocement III — SVA7368 — position and weather

sailwx.info

Track history (hours):
 
Tides and Currents Weather Stations Pressure Air Temp Water Temp Dewpoint Dewpoint Depression Visibility Wind Speed Wind Dir Waves Ship Positions

Naftocement III

Last reported at 2017-Nov-18 16:16 UTC. Time now 2017-Nov-21 14:02 UTC.
Position N 37°52' E 025°03'.

Length 77 m; draft 5.3 m.

Type: Cargo ship. MMSI: 241496000.

Date/timePositionNaut miles runAvg speedWind from/ knotsBaromVisibWave heightAir tempDewpointWater temp
2017-Nov-18 16:16N 37°52' E 025°03'2 9.1
2017-Nov-18 16:00N 37°51' E 025°05'5 9.1
2017-Nov-18 15:29N 37°47' E 025°09'4 8.9
2017-Nov-18 15:00N 37°43' E 025°12'4 8.8
2017-Nov-18 14:30N 37°40' E 025°15'4 8.3
2017-Nov-18 14:00N 37°36' E 025°17'4 8.8
2017-Nov-18 13:30N 37°32' E 025°15'4 8.9
2017-Nov-18 13:00N 37°28' E 025°12'4 8.8
2017-Nov-18 12:30N 37°24' E 025°10'4 9.0
2017-Nov-18 12:00N 37°20' E 025°13'4 8.6
2017-Nov-18 11:30N 37°16' E 025°16'4 8.5
2017-Nov-18 11:00N 37°12' E 025°18'4 8.7
2017-Nov-18 10:30N 37°08' E 025°19'4 8.7
2017-Nov-18 10:00N 37°04' E 025°18'4 8.5
2017-Nov-18 09:30N 36°60' E 025°17'  
2017-Nov-14 16:52N 37°06' E 025°43'3 8.9
2017-Nov-14 16:30N 37°08' E 025°40'9 7.7
2017-Nov-14 15:18N 37°13' E 025°30'2 8.0
2017-Nov-14 15:00N 37°12' E 025°28'4 8.1
2017-Nov-14 14:30N 37°09' E 025°24'3 6.1
2017-Nov-14 14:00N 37°06' E 025°22'0 0.3
2017-Nov-14 13:29N 37°06' E 025°22'0 0.0
2017-Nov-14 12:59N 37°06' E 025°22'0 0.0
2017-Nov-14 12:29N 37°06' E 025°22'0 0.0
2017-Nov-14 11:59N 37°06' E 025°22'0 0.0
2017-Nov-14 11:29N 37°06' E 025°22'0 0.0
2017-Nov-14 10:59N 37°06' E 025°22'0 0.0
2017-Nov-14 10:29N 37°06' E 025°22'0 0.0
2017-Nov-14 09:59N 37°06' E 025°22'0 0.0
2017-Nov-14 09:23N 37°06' E 025°22'0 0.0
2017-Nov-14 08:59N 37°06' E 025°22'0 0.0
2017-Nov-14 08:29N 37°06' E 025°22'0 0.0
2017-Nov-14 07:59N 37°06' E 025°22'0 0.0
2017-Nov-14 07:29N 37°06' E 025°22'0 0.0
2017-Nov-14 06:59N 37°06' E 025°22'0 0.0
2017-Nov-14 06:29N 37°06' E 025°22'0 0.0
2017-Nov-14 05:59N 37°06' E 025°22'0 0.0
2017-Nov-14 05:29N 37°06' E 025°22'0 0.0
2017-Nov-14 04:59N 37°06' E 025°22'0 0.0
2017-Nov-14 04:29N 37°06' E 025°22'0 0.0
2017-Nov-14 03:59N 37°06' E 025°22'0 0.0
2017-Nov-14 03:29N 37°06' E 025°22'0 0.0
2017-Nov-14 02:59N 37°06' E 025°22'0 0.0
2017-Nov-14 02:29N 37°06' E 025°22'0 0.0
2017-Nov-14 01:59N 37°06' E 025°22'0 0.0
2017-Nov-14 01:29N 37°06' E 025°22'0 0.0
2017-Nov-14 00:59N 37°06' E 025°22'0 0.0
2017-Nov-14 00:29N 37°06' E 025°22'0 0.0
2017-Nov-13 23:59N 37°06' E 025°22'0 0.0
2017-Nov-13 23:29N 37°06' E 025°22'0 0.0
2017-Nov-13 22:59N 37°06' E 025°22'0 0.0
2017-Nov-13 22:29N 37°06' E 025°22'0 0.0
2017-Nov-13 21:59N 37°06' E 025°22'3 0.2
2017-Nov-13 01:59N 37°09' E 025°25'0 0.0
2017-Nov-13 01:26N 37°09' E 025°25'0 0.0
2017-Nov-13 00:59N 37°09' E 025°25'0 0.0
2017-Nov-13 00:26N 37°09' E 025°25'0 0.0
2017-Nov-12 23:59N 37°09' E 025°25'0 0.0
2017-Nov-12 23:26N 37°09' E 025°25'0 0.0
2017-Nov-12 22:59N 37°09' E 025°25'0 0.0
2017-Nov-12 22:23N 37°09' E 025°25'0 0.0
2017-Nov-12 21:56N 37°09' E 025°25'0 0.6
2017-Nov-12 21:30N 37°09' E 025°25'3 6.2
2017-Nov-12 21:00N 37°10' E 025°21'4 7.3
2017-Nov-12 20:30N 37°12' E 025°17'4 7.6
2017-Nov-12 20:00N 37°15' E 025°15'4 7.8
2017-Nov-12 19:30N 37°19' E 025°13'4 8.0
2017-Nov-12 19:00N 37°23' E 025°12'4 8.1
2017-Nov-12 18:30N 37°27' E 025°10'4 7.4
2017-Nov-12 18:00N 37°28' E 025°15'4 7.8
2017-Nov-12 17:30N 37°28' E 025°20'0 0.2
2017-Nov-12 17:00N 37°28' E 025°20'0 0.0
2017-Nov-12 16:30N 37°28' E 025°20'0 0.0
2017-Nov-12 16:00N 37°28' E 025°20'0 0.0
2017-Nov-12 15:30N 37°28' E 025°20'0 0.0
2017-Nov-12 15:00N 37°28' E 025°20'0 0.0
2017-Nov-12 14:30N 37°28' E 025°20'0 0.0
2017-Nov-12 14:00N 37°28' E 025°20'0 0.0
2017-Nov-12 13:31N 37°28' E 025°20'0 0.0
2017-Nov-12 13:00N 37°28' E 025°20'0 0.0
2017-Nov-12 12:30N 37°28' E 025°20'0 0.0
2017-Nov-12 12:00N 37°28' E 025°20'0 0.0
2017-Nov-12 11:31N 37°28' E 025°20'0 0.0
2017-Nov-12 11:00N 37°28' E 025°20'0 0.0
2017-Nov-12 10:30N 37°28' E 025°20'0 0.0
2017-Nov-12 10:00N 37°28' E 025°20'0 0.0
2017-Nov-12 09:30N 37°28' E 025°20'0 0.0
2017-Nov-12 09:00N 37°28' E 025°20'0 0.0
2017-Nov-12 08:30N 37°28' E 025°20'0 0.0
2017-Nov-12 08:00N 37°28' E 025°20'0 0.0
2017-Nov-12 07:30N 37°28' E 025°20'0 0.0
2017-Nov-12 07:00N 37°28' E 025°20'0 0.0
2017-Nov-12 06:30N 37°28' E 025°20'0 0.0
2017-Nov-12 06:00N 37°28' E 025°20'0 0.0
2017-Nov-12 05:30N 37°28' E 025°20'0 0.0
2017-Nov-12 05:00N 37°28' E 025°20'1 1.1
2017-Nov-12 04:30N 37°27' E 025°19'0 0.0
2017-Nov-12 04:00N 37°27' E 025°19'0 0.1
2017-Nov-12 03:30N 37°27' E 025°19'0 0.0
2017-Nov-12 03:00N 37°27' E 025°19'0 0.0
2017-Nov-12 02:30N 37°27' E 025°19'0 0.1
2017-Nov-12 02:00N 37°27' E 025°19'2 4.0
2017-Nov-12 01:30N 37°29' E 025°17'4 7.7
2017-Nov-12 01:00N 37°33' E 025°17'4 7.7
2017-Nov-12 00:30N 37°36' E 025°17'4 7.8
2017-Nov-12 00:00N 37°40' E 025°16'4 7.9
2017-Nov-11 23:30N 37°44' E 025°13'4 8.0
2017-Nov-11 23:00N 37°47' E 025°10'9 0.2
2017-Nov-09 21:11N 37°53' E 025°03'2 8.8
2017-Nov-09 20:59N 37°52' E 025°04'4 8.9
2017-Nov-09 20:30N 37°48' E 025°07'5 8.7
2017-Nov-09 19:59N 37°45' E 025°11'4 8.6
2017-Nov-09 19:29N 37°41' E 025°14'4 8.4
2017-Nov-09 19:00N 37°38' E 025°18'4 8.7
2017-Nov-09 18:30N 37°34' E 025°17'4 8.8
2017-Nov-09 18:00N 37°30' E 025°17'2 4.9
2017-Nov-09 17:30N 37°28' E 025°20'0 0.0
2017-Nov-09 17:00N 37°28' E 025°20'0 0.0
2017-Nov-09 16:30N 37°28' E 025°20'0 0.0
2017-Nov-09 16:00N 37°28' E 025°20'0 0.0
2017-Nov-09 15:30N 37°28' E 025°20'0 0.0
2017-Nov-09 15:00N 37°28' E 025°20'0 0.0
2017-Nov-09 14:30N 37°28' E 025°20'0 0.0
2017-Nov-09 14:00N 37°28' E 025°20'0 0.0
2017-Nov-09 13:30N 37°28' E 025°20'0 0.0
2017-Nov-09 13:00N 37°28' E 025°20'0 0.0
2017-Nov-09 12:30N 37°28' E 025°20'0 0.0
2017-Nov-09 12:00N 37°28' E 025°20'0 0.0
2017-Nov-09 11:30N 37°28' E 025°20'0 0.0
2017-Nov-09 11:00N 37°28' E 025°20'0 0.0
2017-Nov-09 10:30N 37°28' E 025°20'0 0.0
2017-Nov-09 10:00N 37°28' E 025°20'0 0.0
2017-Nov-09 09:30N 37°28' E 025°20'0 0.0
2017-Nov-09 09:00N 37°28' E 025°20'0 0.0
2017-Nov-09 08:30N 37°28' E 025°20'0 0.0
2017-Nov-09 08:00N 37°28' E 025°20'0 0.0
2017-Nov-09 07:30N 37°28' E 025°20'0 0.0
2017-Nov-09 07:00N 37°28' E 025°20'0 0.0
2017-Nov-09 06:30N 37°28' E 025°20'0 0.0
2017-Nov-09 06:00N 37°28' E 025°20'0 0.0
2017-Nov-09 05:10N 37°28' E 025°20'0 0.0
2017-Nov-09 05:00N 37°28' E 025°20'0 0.0
2017-Nov-09 04:30N 37°28' E 025°20'0 0.0
2017-Nov-09 04:00N 37°28' E 025°20'0 0.0
2017-Nov-09 03:30N 37°28' E 025°20'0 0.0
2017-Nov-09 03:00N 37°28' E 025°20'0 0.0
2017-Nov-09 02:30N 37°28' E 025°20'0 0.0
2017-Nov-09 02:00N 37°28' E 025°20'0 0.0
2017-Nov-09 01:30N 37°28' E 025°20'0 0.0
2017-Nov-09 01:00N 37°28' E 025°20'0 0.0
2017-Nov-09 00:30N 37°28' E 025°20'0 0.0
2017-Nov-09 00:00N 37°28' E 025°20'0 0.0
2017-Nov-08 23:30N 37°28' E 025°20'0 0.0
2017-Nov-08 23:00N 37°28' E 025°20'1 1.7
2017-Nov-08 22:30N 37°27' E 025°19'3 6.9
2017-Nov-08 22:00N 37°27' E 025°14'3 6.8
2017-Nov-08 21:30N 37°26' E 025°10'4 8.7
2017-Nov-08 21:00N 37°22' E 025°12'5 9.1
2017-Nov-08 20:30N 37°17' E 025°14'4 8.0
2017-Nov-08 20:00N 37°14' E 025°17'1 1.1
2017-Nov-08 19:30N 37°13' E 025°17'0 0.9
2017-Nov-08 19:00N 37°13' E 025°18'0 1.0
2017-Nov-08 18:30N 37°13' E 025°18'3 6.2
2017-Nov-08 18:00N 37°10' E 025°19'6 8.4
2017-Nov-08 17:16N 37°04' E 025°18'2 8.4
2017-Nov-08 17:00N 37°02' E 025°18'  
Track history (hours):
 
Tides and Currents Weather Stations Pressure Air Temp Water Temp Dewpoint Dewpoint Depression Visibility Wind Speed Wind Dir Waves Ship Positions

Naftocement III

Last reported at 2017-Nov-18 16:16 UTC. Time now 2017-Nov-21 14:02 UTC.
Position N 37°52' E 025°03'.

Length 77 m; draft 5.3 m.

Type: Cargo ship. MMSI: 241496000.

Date/timePositionNaut miles runAvg speedWind from/ knotsBaromVisibWave heightAir tempDewpointWater temp
2017-Nov-18 16:16N 37°52' E 025°03'2 9.1
2017-Nov-18 16:00N 37°51' E 025°05'5 9.1
2017-Nov-18 15:29N 37°47' E 025°09'4 8.9
2017-Nov-18 15:00N 37°43' E 025°12'4 8.8
2017-Nov-18 14:30N 37°40' E 025°15'4 8.3
2017-Nov-18 14:00N 37°36' E 025°17'4 8.8
2017-Nov-18 13:30N 37°32' E 025°15'4 8.9
2017-Nov-18 13:00N 37°28' E 025°12'4 8.8
2017-Nov-18 12:30N 37°24' E 025°10'4 9.0
2017-Nov-18 12:00N 37°20' E 025°13'4 8.6
2017-Nov-18 11:30N 37°16' E 025°16'4 8.5
2017-Nov-18 11:00N 37°12' E 025°18'4 8.7
2017-Nov-18 10:30N 37°08' E 025°19'4 8.7
2017-Nov-18 10:00N 37°04' E 025°18'4 8.5
2017-Nov-18 09:30N 36°60' E 025°17'  
2017-Nov-14 16:52N 37°06' E 025°43'3 8.9
2017-Nov-14 16:30N 37°08' E 025°40'9 7.7
2017-Nov-14 15:18N 37°13' E 025°30'2 8.0
2017-Nov-14 15:00N 37°12' E 025°28'4 8.1
2017-Nov-14 14:30N 37°09' E 025°24'3 6.1
2017-Nov-14 14:00N 37°06' E 025°22'0 0.3
2017-Nov-14 13:29N 37°06' E 025°22'0 0.0
2017-Nov-14 12:59N 37°06' E 025°22'0 0.0
2017-Nov-14 12:29N 37°06' E 025°22'0 0.0
2017-Nov-14 11:59N 37°06' E 025°22'0 0.0
2017-Nov-14 11:29N 37°06' E 025°22'0 0.0
2017-Nov-14 10:59N 37°06' E 025°22'0 0.0
2017-Nov-14 10:29N 37°06' E 025°22'0 0.0
2017-Nov-14 09:59N 37°06' E 025°22'0 0.0
2017-Nov-14 09:23N 37°06' E 025°22'0 0.0
2017-Nov-14 08:59N 37°06' E 025°22'0 0.0
2017-Nov-14 08:29N 37°06' E 025°22'0 0.0
2017-Nov-14 07:59N 37°06' E 025°22'0 0.0
2017-Nov-14 07:29N 37°06' E 025°22'0 0.0
2017-Nov-14 06:59N 37°06' E 025°22'0 0.0
2017-Nov-14 06:29N 37°06' E 025°22'0 0.0
2017-Nov-14 05:59N 37°06' E 025°22'0 0.0
2017-Nov-14 05:29N 37°06' E 025°22'0 0.0
2017-Nov-14 04:59N 37°06' E 025°22'0 0.0
2017-Nov-14 04:29N 37°06' E 025°22'0 0.0
2017-Nov-14 03:59N 37°06' E 025°22'0 0.0
2017-Nov-14 03:29N 37°06' E 025°22'0 0.0
2017-Nov-14 02:59N 37°06' E 025°22'0 0.0
2017-Nov-14 02:29N 37°06' E 025°22'0 0.0
2017-Nov-14 01:59N 37°06' E 025°22'0 0.0
2017-Nov-14 01:29N 37°06' E 025°22'0 0.0
2017-Nov-14 00:59N 37°06' E 025°22'0 0.0
2017-Nov-14 00:29N 37°06' E 025°22'0 0.0
2017-Nov-13 23:59N 37°06' E 025°22'0 0.0
2017-Nov-13 23:29N 37°06' E 025°22'0 0.0
2017-Nov-13 22:59N 37°06' E 025°22'0 0.0
2017-Nov-13 22:29N 37°06' E 025°22'0 0.0
2017-Nov-13 21:59N 37°06' E 025°22'3 0.2
2017-Nov-13 01:59N 37°09' E 025°25'0 0.0
2017-Nov-13 01:26N 37°09' E 025°25'0 0.0
2017-Nov-13 00:59N 37°09' E 025°25'0 0.0
2017-Nov-13 00:26N 37°09' E 025°25'0 0.0
2017-Nov-12 23:59N 37°09' E 025°25'0 0.0
2017-Nov-12 23:26N 37°09' E 025°25'0 0.0
2017-Nov-12 22:59N 37°09' E 025°25'0 0.0
2017-Nov-12 22:23N 37°09' E 025°25'0 0.0
2017-Nov-12 21:56N 37°09' E 025°25'0 0.6
2017-Nov-12 21:30N 37°09' E 025°25'3 6.2
2017-Nov-12 21:00N 37°10' E 025°21'4 7.3
2017-Nov-12 20:30N 37°12' E 025°17'4 7.6
2017-Nov-12 20:00N 37°15' E 025°15'4 7.8
2017-Nov-12 19:30N 37°19' E 025°13'4 8.0
2017-Nov-12 19:00N 37°23' E 025°12'4 8.1
2017-Nov-12 18:30N 37°27' E 025°10'4 7.4
2017-Nov-12 18:00N 37°28' E 025°15'4 7.8
2017-Nov-12 17:30N 37°28' E 025°20'0 0.2
2017-Nov-12 17:00N 37°28' E 025°20'0 0.0
2017-Nov-12 16:30N 37°28' E 025°20'0 0.0
2017-Nov-12 16:00N 37°28' E 025°20'0 0.0
2017-Nov-12 15:30N 37°28' E 025°20'0 0.0
2017-Nov-12 15:00N 37°28' E 025°20'0 0.0
2017-Nov-12 14:30N 37°28' E 025°20'0 0.0
2017-Nov-12 14:00N 37°28' E 025°20'0 0.0
2017-Nov-12 13:31N 37°28' E 025°20'0 0.0
2017-Nov-12 13:00N 37°28' E 025°20'0 0.0
2017-Nov-12 12:30N 37°28' E 025°20'0 0.0
2017-Nov-12 12:00N 37°28' E 025°20'0 0.0
2017-Nov-12 11:31N 37°28' E 025°20'0 0.0
2017-Nov-12 11:00N 37°28' E 025°20'0 0.0
2017-Nov-12 10:30N 37°28' E 025°20'0 0.0
2017-Nov-12 10:00N 37°28' E 025°20'0 0.0
2017-Nov-12 09:30N 37°28' E 025°20'0 0.0
2017-Nov-12 09:00N 37°28' E 025°20'0 0.0
2017-Nov-12 08:30N 37°28' E 025°20'0 0.0
2017-Nov-12 08:00N 37°28' E 025°20'0 0.0
2017-Nov-12 07:30N 37°28' E 025°20'0 0.0
2017-Nov-12 07:00N 37°28' E 025°20'0 0.0
2017-Nov-12 06:30N 37°28' E 025°20'0 0.0
2017-Nov-12 06:00N 37°28' E 025°20'0 0.0
2017-Nov-12 05:30N 37°28' E 025°20'0 0.0
2017-Nov-12 05:00N 37°28' E 025°20'1 1.1
2017-Nov-12 04:30N 37°27' E 025°19'0 0.0
2017-Nov-12 04:00N 37°27' E 025°19'0 0.1
2017-Nov-12 03:30N 37°27' E 025°19'0 0.0
2017-Nov-12 03:00N 37°27' E 025°19'0 0.0
2017-Nov-12 02:30N 37°27' E 025°19'0 0.1
2017-Nov-12 02:00N 37°27' E 025°19'2 4.0
2017-Nov-12 01:30N 37°29' E 025°17'4 7.7
2017-Nov-12 01:00N 37°33' E 025°17'4 7.7
2017-Nov-12 00:30N 37°36' E 025°17'4 7.8
2017-Nov-12 00:00N 37°40' E 025°16'4 7.9
2017-Nov-11 23:30N 37°44' E 025°13'4 8.0
2017-Nov-11 23:00N 37°47' E 025°10'9 0.2
2017-Nov-09 21:11N 37°53' E 025°03'2 8.8
2017-Nov-09 20:59N 37°52' E 025°04'4 8.9
2017-Nov-09 20:30N 37°48' E 025°07'5 8.7
2017-Nov-09 19:59N 37°45' E 025°11'4 8.6
2017-Nov-09 19:29N 37°41' E 025°14'4 8.4
2017-Nov-09 19:00N 37°38' E 025°18'4 8.7
2017-Nov-09 18:30N 37°34' E 025°17'4 8.8
2017-Nov-09 18:00N 37°30' E 025°17'2 4.9
2017-Nov-09 17:30N 37°28' E 025°20'0 0.0
2017-Nov-09 17:00N 37°28' E 025°20'0 0.0
2017-Nov-09 16:30N 37°28' E 025°20'0 0.0
2017-Nov-09 16:00N 37°28' E 025°20'0 0.0
2017-Nov-09 15:30N 37°28' E 025°20'0 0.0
2017-Nov-09 15:00N 37°28' E 025°20'0 0.0
2017-Nov-09 14:30N 37°28' E 025°20'0 0.0
2017-Nov-09 14:00N 37°28' E 025°20'0 0.0
2017-Nov-09 13:30N 37°28' E 025°20'0 0.0
2017-Nov-09 13:00N 37°28' E 025°20'0 0.0
2017-Nov-09 12:30N 37°28' E 025°20'0 0.0
2017-Nov-09 12:00N 37°28' E 025°20'0 0.0
2017-Nov-09 11:30N 37°28' E 025°20'0 0.0
2017-Nov-09 11:00N 37°28' E 025°20'0 0.0
2017-Nov-09 10:30N 37°28' E 025°20'0 0.0
2017-Nov-09 10:00N 37°28' E 025°20'0 0.0
2017-Nov-09 09:30N 37°28' E 025°20'0 0.0
2017-Nov-09 09:00N 37°28' E 025°20'0 0.0
2017-Nov-09 08:30N 37°28' E 025°20'0 0.0
2017-Nov-09 08:00N 37°28' E 025°20'0 0.0
2017-Nov-09 07:30N 37°28' E 025°20'0 0.0
2017-Nov-09 07:00N 37°28' E 025°20'0 0.0
2017-Nov-09 06:30N 37°28' E 025°20'0 0.0
2017-Nov-09 06:00N 37°28' E 025°20'0 0.0
2017-Nov-09 05:10N 37°28' E 025°20'0 0.0
2017-Nov-09 05:00N 37°28' E 025°20'0 0.0
2017-Nov-09 04:30N 37°28' E 025°20'0 0.0
2017-Nov-09 04:00N 37°28' E 025°20'0 0.0
2017-Nov-09 03:30N 37°28' E 025°20'0 0.0
2017-Nov-09 03:00N 37°28' E 025°20'0 0.0
2017-Nov-09 02:30N 37°28' E 025°20'0 0.0
2017-Nov-09 02:00N 37°28' E 025°20'0 0.0
2017-Nov-09 01:30N 37°28' E 025°20'0 0.0
2017-Nov-09 01:00N 37°28' E 025°20'0 0.0
2017-Nov-09 00:30N 37°28' E 025°20'0 0.0
2017-Nov-09 00:00N 37°28' E 025°20'0 0.0
2017-Nov-08 23:30N 37°28' E 025°20'0 0.0
2017-Nov-08 23:00N 37°28' E 025°20'1 1.7
2017-Nov-08 22:30N 37°27' E 025°19'3 6.9
2017-Nov-08 22:00N 37°27' E 025°14'3 6.8
2017-Nov-08 21:30N 37°26' E 025°10'4 8.7
2017-Nov-08 21:00N 37°22' E 025°12'5 9.1
2017-Nov-08 20:30N 37°17' E 025°14'4 8.0
2017-Nov-08 20:00N 37°14' E 025°17'1 1.1
2017-Nov-08 19:30N 37°13' E 025°17'0 0.9
2017-Nov-08 19:00N 37°13' E 025°18'0 1.0
2017-Nov-08 18:30N 37°13' E 025°18'3 6.2
2017-Nov-08 18:00N 37°10' E 025°19'6 8.4
2017-Nov-08 17:16N 37°04' E 025°18'2 8.4
2017-Nov-08 17:00N 37°02' E 025°18'  

Dump ship's entire track history